Terminal Aerodrome Forecast
Issued by NWS

Home | Current Version | Previous Version | Graphics & Text | Print | Product List | Glossary On
Versions: 1 2 3 4 5 6 7 8 9 10 11 12 13
000
FTUS43 KGRB 221317 AAA
TAFCWA
TAF AMD
KCWA 221317Z 2213/2312 17009KT P6SM SCT060
     FM221700 20010G15KT P6SM FEW120
     FM230200 17007KT P6SM SKC
     FM230600 19006KT P6SM FEW200 WS020/22035KT=

USA.gov is the U.S. government's official web portal to all federal, state and local government web resources and services.